createdAt,value
2023-01-08T00:01:51.880Z,101185.78
2023-01-08T00:04:21.390Z,101181.50
2023-01-08T00:06:49.273Z,101178.97
2023-01-08T00:09:17.183Z,101171.22
2023-01-08T00:11:45.482Z,101160.94
2023-01-08T00:14:13.397Z,101168.63
2023-01-08T00:16:44.103Z,101160.94
2023-01-08T00:19:12.525Z,101154.91
2023-01-08T00:21:41.933Z,101160.94
2023-01-08T00:24:09.947Z,101145.44
2023-01-08T00:26:37.876Z,101141.91
2023-01-08T00:29:05.787Z,101144.53
2023-01-08T00:31:33.897Z,101153.16
2023-01-08T00:34:01.769Z,101136.75
2023-01-08T00:36:29.706Z,101117.91
2023-01-08T00:39:00.657Z,101126.47
2023-01-08T00:41:28.530Z,101129.91
2023-01-08T00:43:56.471Z,101116.16
2023-01-08T00:46:24.476Z,101114.31
2023-01-08T00:48:52.408Z,101109.22
2023-01-08T00:51:20.380Z,101107.50
2023-01-08T00:53:48.281Z,101114.31
2023-01-08T00:56:19.595Z,101104.03
2023-01-08T00:58:47.462Z,101100.63
2023-01-08T01:01:16.660Z,101100.63
2023-01-08T01:03:45.690Z,101098.03
2023-01-08T01:06:15.122Z,101087.75
2023-01-08T01:08:44.325Z,101082.59
2023-01-08T01:11:18.617Z,101086.88
2023-01-08T01:13:48.286Z,101086.94
2023-01-08T01:16:16.327Z,101089.47
2023-01-08T01:18:44.379Z,101082.53
2023-01-08T01:21:13.887Z,101082.53
2023-01-08T01:23:41.882Z,101080.88
2023-01-08T01:26:16.445Z,101077.38
2023-01-08T01:28:44.367Z,101063.59
2023-01-08T01:31:14.393Z,101070.44
2023-01-08T01:33:42.648Z,101079.91
2023-01-08T01:36:12.307Z,101073.81
2023-01-08T01:38:40.387Z,101072.88
2023-01-08T01:41:08.303Z,101063.44
2023-01-08T01:43:38.925Z,101065.97
2023-01-08T01:46:19.831Z,101066.75
2023-01-08T01:48:51.091Z,101067.59
2023-01-08T01:51:19.731Z,101059.88
2023-01-08T01:53:47.972Z,101062.34
2023-01-08T01:56:16.697Z,101059.72
2023-01-08T01:58:44.642Z,101043.31
2023-01-08T02:01:13.228Z,101039.00
2023-01-08T02:03:42.659Z,101038.00
2023-01-08T02:06:21.173Z,101034.66
2023-01-08T02:09:00.981Z,101032.78
2023-01-08T02:11:38.962Z,101029.38
2023-01-08T02:14:12.811Z,101041.34
2023-01-08T02:16:47.401Z,101034.34
2023-01-08T02:19:25.287Z,101037.84
2023-01-08T02:22:04.023Z,101035.25
2023-01-08T02:24:44.486Z,101032.69
2023-01-08T02:27:15.713Z,101019.78
2023-01-08T02:29:44.078Z,101019.81
2023-01-08T02:32:12.144Z,101022.34
2023-01-08T02:34:40.067Z,101018.03
2023-01-08T02:37:09.816Z,101018.03
2023-01-08T02:39:56.869Z,101012.81
2023-01-08T02:42:36.533Z,101008.56
2023-01-08T02:45:15.349Z,101007.66
2023-01-08T02:47:47.092Z,101016.38
2023-01-08T02:50:20.460Z,101006.84
2023-01-08T02:52:57.605Z,101005.97
2023-01-08T02:55:27.447Z,101010.34
2023-01-08T02:57:57.891Z,101006.84
2023-01-08T03:00:26.114Z,101005.13
2023-01-08T03:03:04.861Z,101005.97
2023-01-08T03:05:33.725Z,100993.94
2023-01-08T03:08:02.205Z,100988.69
2023-01-08T03:10:33.618Z,100986.03
2023-01-08T03:13:07.697Z,100983.34
2023-01-08T03:15:40.511Z,100986.91
2023-01-08T03:18:12.422Z,100982.63
2023-01-08T03:20:40.894Z,100979.94
2023-01-08T03:23:11.930Z,100982.47
2023-01-08T03:25:45.220Z,100981.50
2023-01-08T03:28:20.026Z,100971.19
2023-01-08T03:30:49.662Z,100965.13
2023-01-08T03:33:20.800Z,100966.06
2023-01-08T03:35:52.656Z,100966.84
2023-01-08T03:38:23.447Z,100958.22
2023-01-08T03:40:57.268Z,100956.50
2023-01-08T03:43:26.924Z,100955.63
2023-01-08T03:45:59.304Z,100956.28
2023-01-08T03:48:30.716Z,100951.13
2023-01-08T03:50:58.672Z,100947.66
2023-01-08T03:53:26.684Z,100953.66
2023-01-08T03:55:54.552Z,100946.81
2023-01-08T03:58:22.483Z,100941.81
2023-01-08T04:00:51.734Z,100940.03
2023-01-08T04:03:19.724Z,100944.34
2023-01-08T04:05:48.876Z,100943.47
2023-01-08T04:08:16.723Z,100926.19
2023-01-08T04:10:44.658Z,100929.53
2023-01-08T04:13:12.504Z,100922.59
2023-01-08T04:15:40.500Z,100921.44
2023-01-08T04:18:09.759Z,100930.00
2023-01-08T04:20:37.677Z,100922.31
2023-01-08T04:23:05.583Z,100912.78
2023-01-08T04:25:33.428Z,100917.16
2023-01-08T04:28:01.372Z,100928.34
2023-01-08T04:30:29.221Z,100921.38
2023-01-08T04:32:57.149Z,100919.56
2023-01-08T04:35:26.428Z,100915.25
2023-01-08T04:37:56.770Z,100908.53
2023-01-08T04:40:27.435Z,100904.13
2023-01-08T04:42:57.633Z,100909.22
2023-01-08T04:45:25.527Z,100903.31
2023-01-08T04:47:57.330Z,100902.34
2023-01-08T04:50:27.082Z,100895.44
2023-01-08T04:52:54.953Z,100886.78
2023-01-08T04:55:22.851Z,100885.75
2023-01-08T04:57:50.803Z,100882.41
2023-01-08T05:00:19.142Z,100880.63
2023-01-08T05:02:47.167Z,100872.78
2023-01-08T05:05:15.407Z,100864.03
2023-01-08T05:07:44.713Z,100867.53
2023-01-08T05:10:12.645Z,100859.72
2023-01-08T05:12:40.615Z,100853.88
2023-01-08T05:15:09.794Z,100859.03
2023-01-08T05:17:37.758Z,100860.81
2023-01-08T05:20:05.996Z,100850.19
2023-01-08T05:22:33.865Z,100844.09
2023-01-08T05:25:03.057Z,100839.75
2023-01-08T05:27:30.999Z,100823.25
2023-01-08T05:29:58.921Z,100821.47
2023-01-08T05:32:26.865Z,100815.44
2023-01-08T05:34:54.724Z,100814.63
2023-01-08T05:37:22.798Z,100822.38
2023-01-08T05:39:50.657Z,100814.56
2023-01-08T05:42:19.963Z,100815.09
2023-01-08T05:44:47.864Z,100820.38
2023-01-08T05:47:15.777Z,100801.44
2023-01-08T05:49:43.660Z,100800.59
2023-01-08T05:52:11.769Z,100811.59
2023-01-08T05:54:39.804Z,100805.72
2023-01-08T05:57:07.760Z,100810.63
2023-01-08T05:59:37.050Z,100801.84
2023-01-08T06:02:05.006Z,100806.09
2023-01-08T06:04:32.925Z,100796.50
2023-01-08T06:07:01.073Z,100796.56
2023-01-08T06:09:29.024Z,100780.97
2023-01-08T06:11:58.112Z,100781.84
2023-01-08T06:14:26.208Z,100778.28
2023-01-08T06:16:55.506Z,100777.47
2023-01-08T06:19:23.432Z,100768.91
2023-01-08T06:21:51.308Z,100774.00
2023-01-08T06:24:19.291Z,100772.19
2023-01-08T06:26:47.234Z,100775.50
2023-01-08T06:29:15.098Z,100770.19
2023-01-08T06:31:45.758Z,100773.81
2023-01-08T06:34:15.407Z,100769.41
2023-01-08T06:36:45.832Z,100761.72
2023-01-08T06:39:16.565Z,100773.03
2023-01-08T06:41:45.155Z,100758.50
2023-01-08T06:44:13.235Z,100759.38
2023-01-08T06:46:41.229Z,100754.22
2023-01-08T06:49:09.992Z,100766.19
2023-01-08T06:51:39.346Z,100753.31
2023-01-08T06:54:07.554Z,100743.00
2023-01-08T06:56:48.776Z,100747.13
2023-01-08T06:59:20.685Z,100737.69
2023-01-08T07:01:48.762Z,100745.38
2023-01-08T07:04:16.787Z,100741.94
2023-01-08T07:06:46.213Z,100746.19
2023-01-08T07:09:14.407Z,100736.72
2023-01-08T07:11:43.059Z,100734.06
2023-01-08T07:14:11.595Z,100744.59
2023-01-08T07:16:39.615Z,100741.81
2023-01-08T07:19:07.680Z,100737.50
2023-01-08T07:21:35.642Z,100743.34
2023-01-08T07:24:06.042Z,100732.94
2023-01-08T07:26:34.122Z,100731.03
2023-01-08T07:29:02.243Z,100733.59
2023-01-08T07:31:30.137Z,100729.16
2023-01-08T07:33:58.073Z,100732.56
2023-01-08T07:36:26.006Z,100722.28
2023-01-08T07:38:53.868Z,100733.53
2023-01-08T07:41:23.243Z,100737.94
2023-01-08T07:43:51.225Z,100731.09
2023-01-08T07:46:19.294Z,100713.56
2023-01-08T07:48:47.212Z,100710.00
2023-01-08T07:51:15.140Z,100700.56
2023-01-08T07:53:43.109Z,100708.09
2023-01-08T07:56:11.821Z,100726.22
2023-01-08T07:58:41.310Z,100730.69
2023-01-08T08:01:11.484Z,100727.78
2023-01-08T08:03:39.450Z,100733.41
2023-01-08T08:06:08.199Z,100727.13
2023-01-08T08:08:36.686Z,100732.22
2023-01-08T08:11:04.616Z,100726.22
2023-01-08T08:13:32.604Z,100719.25
2023-01-08T08:16:05.414Z,100721.75
2023-01-08T08:18:33.283Z,100714.84
2023-01-08T08:21:01.173Z,100703.66
2023-01-08T08:23:29.124Z,100703.25
2023-01-08T08:25:57.105Z,100694.84
2023-01-08T08:28:25.045Z,100696.47
2023-01-08T08:30:53.697Z,100690.44
2023-01-08T08:33:23.118Z,100708.63
2023-01-08T08:35:51.657Z,100706.75
2023-01-08T08:38:20.778Z,100701.84
2023-01-08T08:40:49.455Z,100700.44
2023-01-08T08:43:17.350Z,100689.19
2023-01-08T08:45:45.255Z,100684.69
2023-01-08T08:48:13.278Z,100679.44
2023-01-08T08:50:42.520Z,100675.06
2023-01-08T08:53:11.724Z,100673.47
2023-01-08T08:55:39.540Z,100697.63
2023-01-08T08:58:10.787Z,100692.75
2023-01-08T09:00:38.984Z,100691.69
2023-01-08T09:03:07.083Z,100698.34
2023-01-08T09:05:36.922Z,100711.34
2023-01-08T09:08:06.355Z,100707.91
2023-01-08T09:10:34.271Z,100710.50
2023-01-08T09:13:02.083Z,100706.88
2023-01-08T09:15:30.046Z,100699.53
2023-01-08T09:17:58.731Z,100696.75
2023-01-08T09:20:27.851Z,100691.09
2023-01-08T09:22:55.802Z,100692.44
2023-01-08T09:25:24.983Z,100689.84
2023-01-08T09:28:00.594Z,100682.06
2023-01-08T09:30:28.855Z,100678.50
2023-01-08T09:33:02.329Z,100680.00
2023-01-08T09:35:31.000Z,100683.53
2023-01-08T09:37:58.987Z,100680.00
2023-01-08T09:40:36.771Z,100667.00
2023-01-08T09:43:06.171Z,100670.31
2023-01-08T09:45:37.207Z,100671.97
2023-01-08T09:48:08.672Z,100675.09
2023-01-08T09:50:37.685Z,100675.00
2023-01-08T09:53:05.581Z,100658.34
2023-01-08T09:55:35.518Z,100665.38
2023-01-08T09:58:03.658Z,100660.13
2023-01-08T10:00:34.908Z,100647.31
2023-01-08T10:03:03.193Z,100636.19
2023-01-08T10:05:31.651Z,100646.31
2023-01-08T10:07:59.643Z,100633.31
2023-01-08T10:10:30.712Z,100635.19
2023-01-08T10:13:00.538Z,100632.53
2023-01-08T10:15:28.551Z,100624.69
2023-01-08T10:18:03.854Z,100620.50
2023-01-08T10:20:32.600Z,100617.31
2023-01-08T10:23:11.594Z,100625.63
2023-01-08T10:25:51.239Z,100621.28
2023-01-08T10:28:23.687Z,100614.41
2023-01-08T10:30:53.215Z,100598.75
2023-01-08T10:33:25.429Z,100596.22
2023-01-08T10:35:58.694Z,100591.81
2023-01-08T10:38:33.272Z,100601.31
2023-01-08T10:41:04.559Z,100583.84
2023-01-08T10:43:37.892Z,100603.34
2023-01-08T10:46:08.627Z,100601.53
2023-01-08T10:48:39.915Z,100595.56
2023-01-08T10:51:15.473Z,100588.56
2023-01-08T10:53:43.787Z,100578.16
2023-01-08T10:56:21.591Z,100572.91
2023-01-08T10:58:52.304Z,100566.56
2023-01-08T11:01:25.020Z,100554.31
2023-01-08T11:03:55.360Z,100554.31
2023-01-08T11:06:24.842Z,100563.97
2023-01-08T11:08:54.710Z,100563.47
2023-01-08T11:11:24.549Z,100565.19
2023-01-08T11:13:58.828Z,100563.91
2023-01-08T11:16:36.603Z,100564.69
2023-01-08T11:19:05.966Z,100565.38
2023-01-08T11:21:36.234Z,100562.00
2023-01-08T11:24:06.252Z,100566.50
2023-01-08T11:26:37.097Z,100566.97
2023-01-08T11:29:13.863Z,100557.31
2023-01-08T11:31:48.551Z,100561.63
2023-01-08T11:34:23.123Z,100550.19
2023-01-08T11:36:56.373Z,100549.38
2023-01-08T11:39:24.428Z,100553.56
2023-01-08T11:42:09.610Z,100545.56
2023-01-08T11:44:51.759Z,100540.63
2023-01-08T11:47:32.509Z,100540.69
2023-01-08T11:50:18.450Z,100542.13
2023-01-08T11:52:56.761Z,100545.78
2023-01-08T11:55:42.410Z,100545.03
2023-01-08T11:58:34.685Z,100543.06
2023-01-08T12:01:23.146Z,100543.41
2023-01-08T12:03:55.978Z,100540.88
2023-01-08T12:06:35.670Z,100543.25
2023-01-08T12:09:14.674Z,100532.66
2023-01-08T12:11:50.856Z,100528.72
2023-01-08T12:14:31.622Z,100519.84
2023-01-08T12:17:15.385Z,100517.09
2023-01-08T12:19:58.260Z,100516.44
2023-01-08T12:22:37.495Z,100509.50
2023-01-08T12:25:25.642Z,100513.94
2023-01-08T12:28:10.331Z,100507.81
2023-01-08T12:30:48.182Z,100502.66
2023-01-08T12:33:27.780Z,100494.63
2023-01-08T12:36:01.494Z,100493.78
2023-01-08T12:38:33.818Z,100499.81
2023-01-08T12:41:06.643Z,100497.06
2023-01-08T12:43:44.869Z,100489.53
2023-01-08T12:46:17.008Z,100481.06
2023-01-08T12:48:51.697Z,100478.56
2023-01-08T12:51:27.595Z,100472.25
2023-01-08T12:54:04.159Z,100467.63
2023-01-08T12:56:44.983Z,100473.13
2023-01-08T12:59:22.773Z,100470.38
2023-01-08T13:01:56.870Z,100464.22
2023-01-08T13:04:26.171Z,100476.34
2023-01-08T13:07:01.915Z,100476.50
2023-01-08T13:09:31.728Z,100464.22
2023-01-08T13:12:01.931Z,100460.88
2023-01-08T13:14:30.044Z,100450.66
2023-01-08T13:17:07.837Z,100458.19
2023-01-08T13:19:43.540Z,100454.75
2023-01-08T13:22:26.310Z,100457.88
2023-01-08T13:25:08.794Z,100458.13
2023-01-08T13:27:36.895Z,100455.44
2023-01-08T13:30:25.693Z,100449.50
2023-01-08T13:32:54.147Z,100459.78
2023-01-08T13:35:26.531Z,100449.34
2023-01-08T13:38:13.434Z,100447.75
2023-01-08T13:40:56.480Z,100449.19
2023-01-08T13:43:29.085Z,100436.06
2023-01-08T13:46:15.753Z,100440.91
2023-01-08T13:48:54.100Z,100448.91
2023-01-08T13:51:34.868Z,100455.00
2023-01-08T13:54:13.844Z,100454.75
2023-01-08T13:56:42.123Z,100461.25
2023-01-08T13:59:22.251Z,100460.50
2023-01-08T14:01:54.108Z,100467.28
2023-01-08T14:04:22.829Z,100464.84
2023-01-08T14:06:52.329Z,100460.56
2023-01-08T14:09:23.707Z,100459.38
2023-01-08T14:11:55.794Z,100461.03
2023-01-08T14:14:25.275Z,100443.56
2023-01-08T14:16:55.512Z,100450.81
2023-01-08T14:19:23.810Z,100449.97
2023-01-08T14:21:54.979Z,100437.69
2023-01-08T14:24:25.342Z,100449.81
2023-01-08T14:26:54.822Z,100448.16
2023-01-08T14:29:24.604Z,100443.72
2023-01-08T14:31:55.525Z,100438.41
2023-01-08T14:34:26.024Z,100444.47
2023-01-08T14:36:56.678Z,100441.81
2023-01-08T14:39:26.563Z,100435.97
2023-01-08T14:42:13.989Z,100437.47
2023-01-08T14:44:44.467Z,100434.88
2023-01-08T14:47:19.393Z,100439.97
2023-01-08T14:49:53.085Z,100435.72
2023-01-08T14:52:23.019Z,100435.63
2023-01-08T14:54:54.430Z,100424.44
2023-01-08T14:57:24.221Z,100433.13
2023-01-08T14:59:57.328Z,100429.44
2023-01-08T15:02:32.512Z,100430.94
2023-01-08T15:05:14.152Z,100422.34
2023-01-08T15:07:45.413Z,100421.50
2023-01-08T15:10:36.039Z,100423.41
2023-01-08T15:13:07.460Z,100426.09
2023-01-08T15:15:38.017Z,100427.63
2023-01-08T15:18:08.999Z,100429.28
2023-01-08T15:20:37.640Z,100423.00
2023-01-08T15:23:07.078Z,100421.28
2023-01-08T15:25:34.992Z,100415.25
2023-01-08T15:28:04.941Z,100414.50
2023-01-08T15:30:37.905Z,100410.97
2023-01-08T15:33:17.229Z,100413.50
2023-01-08T15:35:46.056Z,100404.94
2023-01-08T15:38:15.930Z,100398.03
2023-01-08T15:40:44.744Z,100403.53
2023-01-08T15:43:13.905Z,100406.88
2023-01-08T15:45:43.165Z,100407.88
2023-01-08T15:48:12.019Z,100410.53
2023-01-08T15:50:41.527Z,100403.63
2023-01-08T15:53:17.231Z,100397.50
2023-01-08T15:55:46.975Z,100398.19
2023-01-08T15:58:16.197Z,100403.28
2023-01-08T16:00:46.068Z,100397.25
2023-01-08T16:03:14.910Z,100397.50
2023-01-08T16:05:43.011Z,100389.00
2023-01-08T16:08:12.063Z,100386.16
2023-01-08T16:10:41.344Z,100388.16
2023-01-08T16:13:11.848Z,100381.06
2023-01-08T16:15:40.715Z,100374.25
2023-01-08T16:18:08.635Z,100380.22
2023-01-08T16:20:36.832Z,100382.88
2023-01-08T16:23:04.695Z,100377.78
2023-01-08T16:25:32.695Z,100367.25
2023-01-08T16:28:03.123Z,100372.59
2023-01-08T16:30:31.042Z,100372.59
2023-01-08T16:32:58.944Z,100371.81
2023-01-08T16:35:26.895Z,100374.34
2023-01-08T16:37:55.958Z,100370.16
2023-01-08T16:40:23.914Z,100367.75
2023-01-08T16:42:51.752Z,100358.97
2023-01-08T16:45:21.026Z,100374.41
2023-01-08T16:47:48.943Z,100372.91
2023-01-08T16:50:17.189Z,100361.72
2023-01-08T16:52:45.122Z,100355.63
2023-01-08T16:55:13.037Z,100360.91
2023-01-08T16:57:40.939Z,100355.72
2023-01-08T17:00:10.113Z,100369.56
2023-01-08T17:02:39.556Z,100353.13
2023-01-08T17:05:08.213Z,100350.59
2023-01-08T17:07:36.389Z,100360.13
2023-01-08T17:10:04.697Z,100355.03
2023-01-08T17:12:32.674Z,100356.69
2023-01-08T17:15:00.530Z,100361.88
2023-01-08T17:17:28.455Z,100363.72
2023-01-08T17:19:57.743Z,100360.22
2023-01-08T17:22:25.675Z,100361.22
2023-01-08T17:24:53.533Z,100363.72
2023-01-08T17:27:21.506Z,100358.63
2023-01-08T17:29:49.471Z,100360.28
2023-01-08T17:32:17.412Z,100357.88
2023-01-08T17:34:45.392Z,100362.13
2023-01-08T17:37:14.890Z,100349.25
2023-01-08T17:39:43.776Z,100338.78
2023-01-08T17:42:26.892Z,100356.78
2023-01-08T17:44:57.108Z,100340.34
2023-01-08T17:47:25.360Z,100335.16
2023-01-08T17:49:54.840Z,100330.94
2023-01-08T17:52:26.049Z,100335.31
2023-01-08T17:54:54.155Z,100333.53
2023-01-08T17:57:22.561Z,100330.13
2023-01-08T17:59:50.533Z,100326.78
2023-01-08T18:02:19.039Z,100318.06
2023-01-08T18:04:47.019Z,100326.78
2023-01-08T18:07:15.387Z,100326.78
2023-01-08T18:09:45.075Z,100321.75
2023-01-08T18:12:13.042Z,100320.00
2023-01-08T18:14:41.618Z,100315.66
2023-01-08T18:17:09.574Z,100306.13
2023-01-08T18:19:37.568Z,100306.22
2023-01-08T18:22:05.631Z,100307.16
2023-01-08T18:24:34.904Z,100300.34
2023-01-08T18:27:04.308Z,100299.63
2023-01-08T18:29:32.303Z,100298.84
2023-01-08T18:32:00.287Z,100299.69
2023-01-08T18:34:28.294Z,100302.38
2023-01-08T18:36:56.225Z,100298.19
2023-01-08T18:39:26.565Z,100295.63
2023-01-08T18:42:11.408Z,100301.13
2023-01-08T18:44:43.230Z,100295.00
2023-01-08T18:47:12.501Z,100295.00
2023-01-08T18:49:40.340Z,100286.47
2023-01-08T18:52:08.643Z,100290.75
2023-01-08T18:54:36.493Z,100284.66
2023-01-08T18:57:04.525Z,100285.59
2023-01-08T18:59:32.493Z,100282.16
2023-01-08T19:02:01.958Z,100283.81
2023-01-08T19:04:30.051Z,100288.16
2023-01-08T19:06:58.090Z,100289.06
2023-01-08T19:09:25.970Z,100287.41
2023-01-08T19:11:53.919Z,100284.72
2023-01-08T19:14:21.739Z,100278.06
2023-01-08T19:16:51.492Z,100279.72
2023-01-08T19:19:21.173Z,100285.75
2023-01-08T19:21:49.054Z,100282.38
2023-01-08T19:24:16.966Z,100274.69
2023-01-08T19:26:46.309Z,100273.84
2023-01-08T19:29:14.381Z,100275.53
2023-01-08T19:31:42.456Z,100280.81
2023-01-08T19:34:11.555Z,100272.28
2023-01-08T19:36:43.568Z,100266.34
2023-01-08T19:39:11.749Z,100264.50
2023-01-08T19:41:57.299Z,100275.88
2023-01-08T19:44:25.253Z,100269.84
2023-01-08T19:46:53.215Z,100268.84
2023-01-08T19:49:21.087Z,100265.44
2023-01-08T19:51:51.021Z,100256.97
2023-01-08T19:54:22.148Z,100260.41
2023-01-08T19:56:50.249Z,100265.59
2023-01-08T19:59:18.104Z,100262.16
2023-01-08T20:01:46.355Z,100263.09
2023-01-08T20:04:14.255Z,100262.94
2023-01-08T20:06:42.193Z,100257.81
2023-01-08T20:09:11.509Z,100257.91
2023-01-08T20:11:39.415Z,100248.44
2023-01-08T20:14:07.447Z,100245.78
2023-01-08T20:16:35.342Z,100249.22
2023-01-08T20:19:04.812Z,100236.34
2023-01-08T20:21:34.320Z,100239.63
2023-01-08T20:24:06.837Z,100237.03
2023-01-08T20:26:38.257Z,100235.34
2023-01-08T20:29:06.873Z,100243.19
2023-01-08T20:31:35.132Z,100238.00
2023-01-08T20:34:05.112Z,100244.03
2023-01-08T20:36:35.202Z,100237.94
2023-01-08T20:39:05.278Z,100236.34
2023-01-08T20:41:33.132Z,100232.75
2023-01-08T20:44:03.654Z,100228.41
2023-01-08T20:46:31.550Z,100227.66
2023-01-08T20:49:02.892Z,100225.16
2023-01-08T20:51:31.017Z,100229.34
2023-01-08T20:53:59.072Z,100232.84
2023-01-08T20:56:26.985Z,100226.16
2023-01-08T20:58:54.977Z,100218.06
2023-01-08T21:01:25.934Z,100222.31
2023-01-08T21:03:56.839Z,100223.06
2023-01-08T21:06:28.099Z,100212.72
2023-01-08T21:08:59.175Z,100212.81
2023-01-08T21:11:27.484Z,100217.13
2023-01-08T21:13:56.627Z,100210.28
2023-01-08T21:16:28.495Z,100210.28
2023-01-08T21:18:56.860Z,100208.56
2023-01-08T21:21:26.887Z,100196.50
2023-01-08T21:23:54.809Z,100204.09
2023-01-08T21:26:22.793Z,100195.53
2023-01-08T21:28:51.077Z,100187.66
2023-01-08T21:31:20.668Z,100190.25
2023-01-08T21:33:51.321Z,100197.19
2023-01-08T21:36:21.439Z,100186.06
2023-01-08T21:38:49.941Z,100188.66
2023-01-08T21:41:33.531Z,100188.72
2023-01-08T21:44:33.952Z,100186.22
2023-01-08T21:47:02.657Z,100188.91
2023-01-08T21:49:32.409Z,100180.22
2023-01-08T21:52:17.993Z,100173.53
2023-01-08T21:54:45.826Z,100176.03
2023-01-08T21:57:13.746Z,100175.13
2023-01-08T21:59:41.675Z,100175.94
2023-01-08T22:02:15.040Z,100168.34
2023-01-08T22:04:45.028Z,100174.28
2023-01-08T22:07:13.408Z,100176.88
2023-01-08T22:09:41.615Z,100165.69
2023-01-08T22:12:09.798Z,100167.47
2023-01-08T22:14:37.954Z,100165.59
2023-01-08T22:17:08.414Z,100169.03
2023-01-08T22:19:37.907Z,100170.84
2023-01-08T22:22:10.278Z,100165.59
2023-01-08T22:24:38.913Z,100156.94
2023-01-08T22:27:07.873Z,100156.00
2023-01-08T22:29:36.582Z,100157.00
2023-01-08T22:32:04.863Z,100153.59
2023-01-08T22:34:33.437Z,100144.97
2023-01-08T22:37:01.641Z,100152.72
2023-01-08T22:39:31.109Z,100156.25
2023-01-08T22:41:59.114Z,100153.59
2023-01-08T22:44:27.167Z,100151.84
2023-01-08T22:46:55.035Z,100151.75
2023-01-08T22:49:22.884Z,100149.00
2023-01-08T22:51:50.862Z,100152.47
2023-01-08T22:54:18.955Z,100149.81
2023-01-08T22:56:50.618Z,100154.25
2023-01-08T22:59:19.143Z,100140.47
2023-01-08T23:01:47.124Z,100135.19
2023-01-08T23:04:15.301Z,100135.28
2023-01-08T23:06:43.371Z,100138.81
2023-01-08T23:09:11.369Z,100136.94
2023-01-08T23:11:40.947Z,100127.44
2023-01-08T23:14:14.131Z,100130.97
2023-01-08T23:16:42.105Z,100127.59
2023-01-08T23:19:10.039Z,100119.75
2023-01-08T23:21:38.682Z,100124.09
2023-01-08T23:24:08.496Z,100120.00
2023-01-08T23:26:36.432Z,100117.50
2023-01-08T23:29:04.686Z,100125.28
2023-01-08T23:31:37.607Z,100110.66
2023-01-08T23:34:06.013Z,100114.91
2023-01-08T23:36:34.114Z,100109.56
2023-01-08T23:39:02.117Z,100114.84
2023-01-08T23:41:34.714Z,100112.25
2023-01-08T23:44:05.408Z,100114.75
2023-01-08T23:46:34.518Z,100115.94
2023-01-08T23:49:02.514Z,100116.56
2023-01-08T23:51:31.078Z,100119.06
2023-01-08T23:53:58.955Z,100120.00
2023-01-08T23:56:26.989Z,100113.91
2023-01-08T23:58:55.202Z,100109.47
